Time;durP1;ratioP1;P1;durP2;ratioP2;P2;SDS_P1;SDS_P2;PMS_P1;PMS_P2;Temp;Humidity;BMP_temperature;BMP_pressure;BME280_temperature;BME280_humidity;BME280_pressure;Samples;Min_cycle;Max_cycle;Signal;HPM_P1;HPM_P2
2021/09/17 00:00:38;;;;;;;9.60;6.17;;;14.40;99.90;;;;;;5015272;28;20191;-71
2021/09/17 00:03:04;;;;;;;7.47;6.70;;;14.40;99.90;;;;;;5014888;28;20415;-71
2021/09/17 00:05:29;;;;;;;7.37;6.57;;;14.40;99.90;;;;;;5017174;28;20430;-71
2021/09/17 00:07:55;;;;;;;8.00;6.87;;;14.30;99.90;;;;;;5015844;28;20184;-70
2021/09/17 00:10:21;;;;;;;7.47;6.50;;;14.30;99.90;;;;;;5014392;28;20187;-71
2021/09/17 00:12:47;;;;;;;7.63;6.80;;;14.20;99.90;;;;;;5013959;28;20178;-71
2021/09/17 00:15:14;;;;;;;6.80;6.17;;;14.20;99.90;;;;;;5014018;28;20414;-70
2021/09/17 00:17:40;;;;;;;8.93;6.70;;;14.20;99.90;;;;;;5024577;28;20461;-70
2021/09/17 00:20:08;;;;;;;9.77;6.63;;;14.30;99.90;;;;;;5034352;28;20398;-70
2021/09/17 00:22:34;;;;;;;7.10;6.40;;;14.30;99.90;;;;;;5033883;28;20405;-69
2021/09/17 00:24:59;;;;;;;7.50;6.80;;;14.40;99.90;;;;;;5023074;28;20438;-69
2021/09/17 00:27:25;;;;;;;8.47;6.87;;;14.50;99.90;;;;;;5027990;28;20265;-70
2021/09/17 00:29:50;;;;;;;7.83;6.57;;;14.50;99.90;;;;;;5013873;28;20526;-70
2021/09/17 00:32:16;;;;;;;6.17;5.57;;;14.50;99.90;;;;;;4996425;28;20824;-69
2021/09/17 00:34:42;;;;;;;8.27;6.70;;;14.60;99.90;;;;;;5013616;28;20183;-70
2021/09/17 00:37:07;;;;;;;6.97;6.27;;;14.60;99.90;;;;;;5014221;28;20198;-70
2021/09/17 00:39:33;;;;;;;7.70;6.70;;;14.70;99.90;;;;;;5014589;28;20178;-70
2021/09/17 00:41:58;;;;;;;6.33;5.73;;;14.70;99.90;;;;;;5013409;28;20195;-69
2021/09/17 00:44:27;;;;;;;6.33;5.73;;;14.70;99.90;;;;;;5014960;28;20206;-69
2021/09/17 00:46:52;;;;;;;6.63;6.03;;;14.80;99.90;;;;;;5013842;28;20172;-70
2021/09/17 00:49:20;;;;;;;7.10;6.50;;;14.80;99.90;;;;;;5013587;28;20454;-70
2021/09/17 00:51:47;;;;;;;8.60;6.00;;;14.90;99.90;;;;;;5014171;28;20298;-70
2021/09/17 00:54:13;;;;;;;5.83;5.33;;;14.90;99.90;;;;;;5014761;28;20869;-70
2021/09/17 00:56:38;;;;;;;7.00;6.10;;;14.90;99.90;;;;;;5014009;28;20529;-70
2021/09/17 00:59:04;;;;;;;8.30;5.70;;;15.00;99.90;;;;;;5014016;28;20249;-70
2021/09/17 01:01:29;;;;;;;6.47;5.87;;;15.00;99.90;;;;;;4996786;28;20223;-71
2021/09/17 01:03:55;;;;;;;5.47;4.97;;;15.00;99.90;;;;;;5014929;28;20180;-71
2021/09/17 01:06:21;;;;;;;6.53;5.80;;;15.00;99.90;;;;;;5014991;28;20175;-70
2021/09/17 01:08:46;;;;;;;9.20;6.30;;;15.10;99.90;;;;;;5013234;28;20179;-70
2021/09/17 01:11:12;;;;;;;6.60;6.00;;;15.10;99.90;;;;;;4996001;28;20669;-70
2021/09/17 01:13:39;;;;;;;7.20;6.40;;;15.10;99.90;;;;;;5013620;28;20191;-71
2021/09/17 01:16:04;;;;;;;6.57;5.90;;;15.10;99.90;;;;;;5014755;28;20912;-70
2021/09/17 01:18:30;;;;;;;8.23;7.20;;;15.20;99.90;;;;;;5013550;28;20439;-70
2021/09/17 01:21:00;;;;;;;6.97;6.13;;;15.20;99.90;;;;;;5013138;28;20196;-71
2021/09/17 01:23:26;;;;;;;6.63;5.97;;;15.10;99.90;;;;;;5015928;28;20171;-71
2021/09/17 01:25:53;;;;;;;6.17;5.53;;;15.10;99.90;;;;;;5018499;28;20476;-71
2021/09/17 01:28:28;;;;;;;6.20;5.50;;;15.00;99.90;;;;;;5016722;28;20414;-70
2021/09/17 01:30:54;;;;;;;6.80;6.10;;;15.00;99.90;;;;;;5000337;28;21029;-70
2021/09/17 01:33:20;;;;;;;6.40;5.77;;;14.90;99.90;;;;;;5000835;28;20438;-71
2021/09/17 01:35:45;;;;;;;6.83;6.30;;;14.90;99.90;;;;;;5020573;28;20202;-71
2021/09/17 01:38:11;;;;;;;7.93;6.10;;;14.90;99.90;;;;;;5038025;28;20556;-71
2021/09/17 01:40:37;;;;;;;6.70;6.00;;;14.90;99.90;;;;;;5054725;28;20203;-70
2021/09/17 01:43:03;;;;;;;9.07;6.63;;;14.90;99.90;;;;;;5052680;28;20410;-71
2021/09/17 01:45:29;;;;;;;6.70;6.20;;;15.00;99.90;;;;;;5025060;28;20170;-71
2021/09/17 01:47:54;;;;;;;8.10;6.20;;;15.10;99.90;;;;;;5041342;28;20500;-71
2021/09/17 01:50:20;;;;;;;6.03;5.40;;;15.10;99.90;;;;;;5058880;28;20199;-72
2021/09/17 01:52:46;;;;;;;6.60;6.00;;;15.10;99.90;;;;;;5037532;28;20240;-71
2021/09/17 01:55:11;;;;;;;9.10;6.00;;;15.10;99.90;;;;;;5036279;28;20171;-71
2021/09/17 01:57:37;;;;;;;6.83;6.10;;;15.10;99.90;;;;;;5034518;28;20301;-71
2021/09/17 02:00:05;;;;;;;6.73;6.13;;;15.10;99.90;;;;;;5035614;28;20190;-71
2021/09/17 02:02:31;;;;;;;6.90;6.10;;;15.10;99.90;;;;;;5036211;28;20167;-73
2021/09/17 02:04:57;;;;;;;6.40;5.80;;;15.20;99.90;;;;;;5035978;28;20449;-72
2021/09/17 02:07:22;;;;;;;9.07;6.23;;;15.10;99.90;;;;;;5034492;28;20175;-72
2021/09/17 02:09:48;;;;;;;7.50;6.20;;;15.10;99.90;;;;;;5018831;28;20805;-72
2021/09/17 02:12:14;;;;;;;10.60;7.07;;;15.00;99.90;;;;;;5018765;28;20227;-71
2021/09/17 02:14:40;;;;;;;6.53;5.93;;;14.90;99.90;;;;;;5016376;28;20180;-71
2021/09/17 02:17:06;;;;;;;8.10;7.40;;;14.90;99.90;;;;;;5000602;28;20199;-71
2021/09/17 02:19:31;;;;;;;6.37;5.77;;;14.80;99.90;;;;;;5018661;28;20442;-71
2021/09/17 02:21:57;;;;;;;7.37;6.77;;;14.90;99.90;;;;;;5017257;28;20200;-72
2021/09/17 02:24:22;;;;;;;6.47;5.87;;;14.90;99.90;;;;;;5010714;28;20183;-71
2021/09/17 02:26:48;;;;;;;7.67;6.60;;;15.00;99.90;;;;;;5014393;28;20274;-71
2021/09/17 02:29:14;;;;;;;7.27;6.60;;;15.10;99.90;;;;;;5019904;28;20167;-71
2021/09/17 02:31:39;;;;;;;8.60;6.23;;;15.10;99.90;;;;;;5036177;28;20182;-71
2021/09/17 02:34:05;;;;;;;8.00;7.20;;;15.10;99.90;;;;;;5035295;28;20175;-72
2021/09/17 02:36:30;;;;;;;7.53;6.83;;;15.10;99.90;;;;;;5034859;28;20203;-72
2021/09/17 02:38:56;;;;;;;7.13;6.53;;;15.20;99.90;;;;;;5034858;28;20183;-71
2021/09/17 02:41:21;;;;;;;7.10;6.40;;;15.20;99.90;;;;;;5033568;28;20203;-71
2021/09/17 02:43:48;;;;;;;7.67;6.67;;;15.30;99.90;;;;;;5035122;28;20179;-71
2021/09/17 02:46:13;;;;;;;6.57;5.97;;;15.30;99.90;;;;;;5034903;28;20163;-71
2021/09/17 02:48:40;;;;;;;7.63;6.77;;;15.30;99.90;;;;;;5035309;28;20416;-70
2021/09/17 02:51:06;;;;;;;11.07;6.90;;;15.30;99.90;;;;;;5034957;28;20202;-71
2021/09/17 02:53:31;;;;;;;7.57;6.30;;;15.30;99.90;;;;;;5033886;28;20433;-71
2021/09/17 02:55:57;;;;;;;6.40;5.80;;;15.40;99.90;;;;;;5035574;28;20162;-71
2021/09/17 02:58:23;;;;;;;6.70;6.00;;;15.40;99.90;;;;;;5035634;28;20198;-70
2021/09/17 03:00:48;;;;;;;7.43;6.43;;;15.40;99.90;;;;;;5034848;28;20187;-71
2021/09/17 03:03:16;;;;;;;7.97;6.37;;;15.40;99.90;;;;;;5034910;28;20199;-71
2021/09/17 03:05:43;;;;;;;6.93;6.13;;;15.40;99.90;;;;;;5033806;28;20178;-71
2021/09/17 03:08:09;;;;;;;6.10;5.50;;;15.40;99.90;;;;;;5035885;28;20459;-71
2021/09/17 03:10:34;;;;;;;7.00;6.40;;;15.40;99.90;;;;;;5034996;28;20484;-70
2021/09/17 03:13:00;;;;;;;6.57;5.97;;;15.40;99.90;;;;;;5035142;28;20186;-70
2021/09/17 03:15:25;;;;;;;8.13;6.40;;;15.50;99.90;;;;;;5023112;28;20261;-70
2021/09/17 03:17:51;;;;;;;8.20;6.13;;;15.50;99.90;;;;;;5015048;28;20245;-70
2021/09/17 03:20:16;;;;;;;16.47;7.27;;;15.50;99.90;;;;;;5014545;28;20178;-71
2021/09/17 03:22:42;;;;;;;8.23;6.40;;;15.40;99.90;;;;;;5016030;28;20155;-70
2021/09/17 03:25:08;;;;;;;7.73;6.93;;;15.40;99.90;;;;;;5015972;28;20176;-70
2021/09/17 03:27:34;;;;;;;7.20;6.23;;;15.50;99.90;;;;;;5014580;28;20191;-71
2021/09/17 03:30:00;;;;;;;6.80;6.23;;;15.50;99.90;;;;;;5016118;28;20422;-70
2021/09/17 03:32:25;;;;;;;8.60;7.30;;;15.50;99.90;;;;;;4998321;28;20179;-71
2021/09/17 03:34:51;;;;;;;6.43;5.83;;;15.50;99.90;;;;;;5014903;28;20306;-71
2021/09/17 03:37:16;;;;;;;8.80;7.00;;;15.50;99.90;;;;;;4998904;28;20200;-71
2021/09/17 03:39:42;;;;;;;8.70;7.73;;;15.50;99.90;;;;;;5014807;28;20178;-71
2021/09/17 03:42:08;;;;;;;8.87;8.00;;;15.50;99.90;;;;;;4996564;28;20203;-71
2021/09/17 03:44:33;;;;;;;8.23;7.43;;;15.50;99.90;;;;;;5014466;28;20160;-71
2021/09/17 03:46:59;;;;;;;8.73;7.30;;;15.50;99.90;;;;;;5015088;28;20473;-71
2021/09/17 03:49:25;;;;;;;8.40;7.43;;;15.50;99.90;;;;;;5014375;28;20258;-71
2021/09/17 03:51:50;;;;;;;7.87;7.07;;;15.50;99.90;;;;;;5013166;28;20223;-71
2021/09/17 03:54:16;;;;;;;8.07;7.37;;;15.50;99.90;;;;;;5014367;28;20186;-71
2021/09/17 03:56:41;;;;;;;8.40;7.60;;;15.50;99.90;;;;;;5014896;28;20199;-71
2021/09/17 03:59:07;;;;;;;12.90;8.40;;;15.50;99.90;;;;;;5014737;28;20183;-71
2021/09/17 04:01:32;;;;;;;8.33;7.60;;;15.50;99.90;;;;;;5013924;28;20196;-70
2021/09/17 04:03:58;;;;;;;8.47;7.50;;;15.50;99.90;;;;;;5014570;28;20194;-70
2021/09/17 04:06:23;;;;;;;7.90;7.10;;;15.50;99.90;;;;;;5013648;28;20175;-70
2021/09/17 04:08:49;;;;;;;8.00;7.30;;;15.60;99.90;;;;;;5015060;28;20172;-70
2021/09/17 04:11:15;;;;;;;10.03;8.53;;;15.60;99.90;;;;;;5013975;28;20195;-71
2021/09/17 04:13:41;;;;;;;11.33;9.03;;;15.50;99.90;;;;;;5014608;28;20265;-71
2021/09/17 04:16:06;;;;;;;11.20;9.63;;;15.40;99.90;;;;;;5044463;28;20190;-72
2021/09/17 04:18:32;;;;;;;10.17;9.17;;;15.30;99.90;;;;;;5029185;28;20415;-71
2021/09/17 04:20:58;;;;;;;12.40;9.30;;;15.20;99.90;;;;;;5013936;28;20553;-71
2021/09/17 04:23:23;;;;;;;10.53;9.50;;;15.20;99.90;;;;;;5014501;28;20168;-72
2021/09/17 04:25:49;;;;;;;9.47;8.50;;;15.30;99.90;;;;;;5013631;28;20192;-72
2021/09/17 04:28:14;;;;;;;8.40;7.67;;;15.30;99.90;;;;;;5013688;28;20680;-71
2021/09/17 04:30:40;;;;;;;8.73;7.90;;;15.40;99.90;;;;;;5014205;28;20215;-71
2021/09/17 04:33:05;;;;;;;8.70;7.83;;;15.50;99.90;;;;;;4995570;28;20176;-71
2021/09/17 04:35:31;;;;;;;11.30;9.90;;;15.50;99.90;;;;;;5013447;28;20176;-70
2021/09/17 04:37:56;;;;;;;9.90;8.60;;;15.50;99.90;;;;;;4995866;28;20470;-71
2021/09/17 04:40:23;;;;;;;9.83;8.83;;;15.50;99.90;;;;;;5014749;28;20508;-71
2021/09/17 04:42:49;;;;;;;9.13;8.20;;;15.50;99.90;;;;;;5018666;28;20178;-70
2021/09/17 04:45:15;;;;;;;10.50;8.70;;;15.50;99.90;;;;;;5034610;28;20441;-70
2021/09/17 04:47:41;;;;;;;11.37;7.97;;;15.50;99.90;;;;;;5034789;28;20890;-71
2021/09/17 04:50:08;;;;;;;9.80;8.80;;;15.50;99.90;;;;;;5035059;28;20175;-72
2021/09/17 04:52:34;;;;;;;8.70;7.77;;;15.60;99.90;;;;;;5035084;28;20195;-70
2021/09/17 04:54:59;;;;;;;8.10;7.30;;;15.60;99.90;;;;;;5004901;28;20499;-71
2021/09/17 04:57:28;;;;;;;7.90;7.10;;;15.50;99.90;;;;;;5032684;28;20187;-71
2021/09/17 04:59:54;;;;;;;8.50;7.70;;;15.60;99.90;;;;;;5034848;28;20168;-71
2021/09/17 05:02:19;;;;;;;8.33;6.93;;;15.50;99.90;;;;;;5026226;28;20484;-71
2021/09/17 05:04:45;;;;;;;7.77;7.07;;;15.60;99.90;;;;;;5041698;28;20172;-71
2021/09/17 05:07:11;;;;;;;8.97;7.63;;;15.60;99.90;;;;;;5037175;28;20183;-71
2021/09/17 05:09:37;;;;;;;8.70;7.90;;;15.60;99.90;;;;;;5028934;28;20661;-71
2021/09/17 05:12:03;;;;;;;8.03;7.23;;;15.60;99.90;;;;;;5017696;28;20507;-71
2021/09/17 05:14:29;;;;;;;7.70;6.90;;;15.60;99.90;;;;;;5018651;28;20421;-71
2021/09/17 05:16:54;;;;;;;8.00;7.30;;;15.60;99.90;;;;;;5031852;28;20837;-70
2021/09/17 05:19:23;;;;;;;13.77;8.20;;;15.60;99.90;;;;;;5025706;28;20258;-72
2021/09/17 05:21:51;;;;;;;9.30;7.13;;;15.60;99.90;;;;;;5021764;28;20688;-71
2021/09/17 05:24:17;;;;;;;9.30;7.20;;;15.60;99.90;;;;;;5028036;28;20425;-71
2021/09/17 05:26:42;;;;;;;7.80;7.10;;;15.60;99.90;;;;;;5029941;28;20436;-71
2021/09/17 05:29:08;;;;;;;7.93;7.17;;;15.60;99.90;;;;;;5032428;28;20536;-71
2021/09/17 05:31:33;;;;;;;10.63;7.40;;;15.70;99.90;;;;;;5032771;28;20211;-71
2021/09/17 05:33:59;;;;;;;8.20;7.40;;;15.70;99.90;;;;;;5031967;28;20273;-71
2021/09/17 05:36:24;;;;;;;11.40;8.23;;;15.80;99.90;;;;;;5029608;28;20197;-71
2021/09/17 05:38:50;;;;;;;10.40;9.30;;;15.80;99.90;;;;;;5020979;28;20213;-71
2021/09/17 05:41:15;;;;;;;11.90;10.47;;;15.80;99.90;;;;;;5033326;28;20348;-71
2021/09/17 05:43:41;;;;;;;11.87;10.73;;;15.80;99.90;;;;;;5033979;28;20197;-72
2021/09/17 05:46:06;;;;;;;15.00;12.27;;;15.80;99.90;;;;;;5031682;28;20195;-72
2021/09/17 05:48:32;;;;;;;12.57;10.50;;;15.80;99.90;;;;;;5019472;28;20773;-71
2021/09/17 05:50:57;;;;;;;10.33;8.70;;;15.90;99.90;;;;;;5019397;28;20630;-71
2021/09/17 05:53:23;;;;;;;9.80;8.80;;;15.90;99.90;;;;;;5032003;28;20197;-70
2021/09/17 05:55:48;;;;;;;9.33;8.40;;;15.90;99.90;;;;;;5032770;28;20187;-71
2021/09/17 05:58:14;;;;;;;9.00;8.10;;;15.90;99.90;;;;;;5026633;28;20901;-71
2021/09/17 06:00:40;;;;;;;8.70;7.90;;;15.90;99.90;;;;;;5029867;28;20676;-71
2021/09/17 06:03:05;;;;;;;11.10;9.17;;;16.00;99.90;;;;;;5033274;28;20298;-70
2021/09/17 06:05:31;;;;;;;14.40;10.17;;;16.00;99.90;;;;;;5033362;28;20277;-71
2021/09/17 06:07:56;;;;;;;11.87;9.43;;;16.00;99.90;;;;;;5027387;28;20202;-71
2021/09/17 06:10:22;;;;;;;11.20;9.70;;;16.00;99.90;;;;;;5029816;28;20203;-71
2021/09/17 06:12:47;;;;;;;10.33;9.27;;;16.10;99.90;;;;;;5020049;28;20195;-70
2021/09/17 06:15:16;;;;;;;12.10;10.30;;;16.10;99.90;;;;;;5022108;28;20190;-71
2021/09/17 06:17:42;;;;;;;13.60;11.32;;;16.10;99.90;;;;;;5029151;28;20918;-71
2021/09/17 06:20:10;;;;;;;11.70;10.50;;;16.20;99.90;;;;;;5032546;28;20182;-71
2021/09/17 06:22:35;;;;;;;14.83;12.03;;;16.20;99.90;;;;;;5018537;28;21050;-70
2021/09/17 06:25:01;;;;;;;14.80;12.80;;;16.20;99.90;;;;;;5030353;28;20422;-70
2021/09/17 06:27:27;;;;;;;13.23;11.53;;;16.30;99.90;;;;;;5032933;28;20190;-70
2021/09/17 06:29:52;;;;;;;14.10;12.40;;;16.30;99.90;;;;;;5023720;28;20437;-70
2021/09/17 06:32:18;;;;;;;15.47;13.00;;;16.30;99.90;;;;;;5026684;28;20227;-71
2021/09/17 06:34:43;;;;;;;20.87;13.70;;;16.30;99.90;;;;;;5019491;28;20289;-71
2021/09/17 06:37:09;;;;;;;14.90;13.30;;;16.30;99.90;;;;;;5026545;28;20233;-70
2021/09/17 06:39:35;;;;;;;19.03;15.27;;;16.30;99.90;;;;;;5022949;28;20183;-70
2021/09/17 06:42:02;;;;;;;17.50;15.23;;;16.20;99.90;;;;;;5022574;28;20233;-70
2021/09/17 06:44:29;;;;;;;21.60;18.67;;;16.10;99.90;;;;;;5027068;28;20484;-71
2021/09/17 06:46:55;;;;;;;24.03;17.93;;;16.20;99.90;;;;;;5020269;28;21705;-71
2021/09/17 06:49:21;;;;;;;21.63;17.80;;;16.30;99.90;;;;;;5015354;28;20492;-71
2021/09/17 06:51:47;;;;;;;23.10;18.80;;;16.40;99.90;;;;;;5030230;28;20501;-71
2021/09/17 06:54:12;;;;;;;23.90;18.47;;;16.50;99.90;;;;;;5025925;28;20232;-70
2021/09/17 06:56:38;;;;;;;26.80;20.77;;;16.50;99.90;;;;;;5022954;28;20222;-72
2021/09/17 06:59:03;;;;;;;26.80;21.67;;;16.60;99.90;;;;;;5034403;28;20208;-72
2021/09/17 07:01:29;;;;;;;27.77;22.10;;;16.60;99.90;;;;;;5028434;28;20211;-72
2021/09/17 07:03:54;;;;;;;30.23;23.03;;;16.70;99.90;;;;;;5022692;28;20203;-71
2021/09/17 07:06:20;;;;;;;31.37;22.67;;;16.70;99.90;;;;;;5030048;28;20913;-71
2021/09/17 07:08:45;;;;;;;28.50;22.43;;;16.80;99.90;;;;;;5031919;28;20187;-71
2021/09/17 07:11:11;;;;;;;30.03;23.53;;;16.80;99.90;;;;;;5036303;28;20550;-70
2021/09/17 07:13:36;;;;;;;27.77;23.37;;;16.90;99.90;;;;;;5052646;28;20578;-72
2021/09/17 07:16:02;;;;;;;29.17;22.37;;;16.90;99.90;;;;;;5030429;28;20596;-71
2021/09/17 07:18:28;;;;;;;30.93;25.53;;;17.00;99.90;;;;;;5030995;28;20218;-71
2021/09/17 07:20:54;;;;;;;30.30;24.67;;;17.10;99.90;;;;;;5030102;28;20218;-71
2021/09/17 07:23:20;;;;;;;35.07;25.63;;;17.20;99.90;;;;;;5039102;28;20567;-72
2021/09/17 07:25:46;;;;;;;35.03;27.17;;;17.20;99.90;;;;;;5023328;28;20422;-72
2021/09/17 07:28:12;;;;;;;36.50;28.23;;;17.30;99.90;;;;;;5025537;28;20425;-71
2021/09/17 07:30:38;;;;;;;30.83;25.10;;;17.30;99.90;;;;;;5031632;28;20456;-71
2021/09/17 07:33:03;;;;;;;48.20;32.13;;;17.40;99.90;;;;;;5029606;28;20429;-71
2021/09/17 07:35:29;;;;;;;39.87;31.67;;;17.40;99.90;;;;;;5028257;28;20182;-71
2021/09/17 07:37:55;;;;;;;38.00;30.90;;;17.40;99.90;;;;;;5029069;28;20233;-73
2021/09/17 07:40:21;;;;;;;36.97;29.87;;;17.40;99.90;;;;;;5029727;28;20221;-70
2021/09/17 07:42:47;;;;;;;37.93;29.27;;;17.50;99.90;;;;;;5029348;28;20221;-71
2021/09/17 07:45:14;;;;;;;37.37;29.07;;;17.50;99.90;;;;;;5026783;28;20206;-71
2021/09/17 07:47:40;;;;;;;36.07;28.97;;;17.50;99.90;;;;;;5028381;28;20446;-72
2021/09/17 07:50:08;;;;;;;34.40;27.20;;;17.60;99.90;;;;;;5035896;28;20413;-72
2021/09/17 07:52:34;;;;;;;35.97;29.37;;;17.70;99.90;;;;;;5033942;28;20441;-72
2021/09/17 07:54:59;;;;;;;34.13;26.63;;;17.70;99.90;;;;;;5029871;28;20428;-70
2021/09/17 07:57:25;;;;;;;35.10;28.63;;;17.80;99.90;;;;;;5030182;28;20221;-71
2021/09/17 07:59:50;;;;;;;33.17;26.90;;;17.80;99.90;;;;;;5030802;28;20607;-72
2021/09/17 08:02:16;;;;;;;33.07;28.07;;;17.80;99.90;;;;;;5030705;28;20203;-71
2021/09/17 08:04:41;;;;;;;33.13;27.20;;;17.90;99.90;;;;;;5031172;28;20186;-71
2021/09/17 08:07:08;;;;;;;38.93;28.57;;;17.70;99.90;;;;;;5013148;28;20198;-71
2021/09/17 08:09:34;;;;;;;38.07;29.13;;;17.70;99.90;;;;;;5031856;28;20241;-71
2021/09/17 08:12:01;;;;;;;34.70;27.30;;;17.80;99.90;;;;;;5033254;28;21121;-71
2021/09/17 08:14:27;;;;;;;36.50;27.33;;;17.70;99.90;;;;;;5035404;28;21104;-73
2021/09/17 08:16:53;;;;;;;36.17;27.93;;;17.70;99.90;;;;;;5034968;28;20842;-71
2021/09/17 08:19:18;;;;;;;36.80;28.40;;;17.70;99.90;;;;;;5046611;28;20429;-70
2021/09/17 08:21:44;;;;;;;33.87;27.60;;;17.70;99.90;;;;;;5034186;28;20198;-72
2021/09/17 08:24:14;;;;;;;35.67;27.60;;;17.70;99.90;;;;;;5061298;28;20181;-71
2021/09/17 08:26:50;;;;;;;33.43;25.93;;;17.80;99.90;;;;;;5053456;28;20193;-71
2021/09/17 08:29:17;;;;;;;35.40;27.57;;;17.90;99.90;;;;;;5037091;28;20454;-72
2021/09/17 08:31:43;;;;;;;35.60;27.10;;;18.00;99.90;;;;;;5030802;28;20792;-71
2021/09/17 08:34:09;;;;;;;37.80;27.60;;;18.10;99.90;;;;;;5036553;28;20504;-71
2021/09/17 08:36:36;;;;;;;33.70;27.50;;;18.20;99.90;;;;;;5033278;28;20472;-71
2021/09/17 08:39:04;;;;;;;35.23;27.40;;;18.30;99.90;;;;;;5019426;28;20417;-71
2021/09/17 08:41:30;;;;;;;34.60;27.53;;;18.30;99.90;;;;;;5034226;28;20794;-71
2021/09/17 08:43:55;;;;;;;32.23;25.73;;;18.40;99.90;;;;;;5030433;28;20926;-71
2021/09/17 08:46:21;;;;;;;29.70;26.10;;;18.40;99.90;;;;;;5034469;28;20424;-71
2021/09/17 08:48:51;;;;;;;32.90;26.13;;;18.50;99.90;;;;;;5034416;28;20186;-71
2021/09/17 08:51:18;;;;;;;32.00;25.73;;;18.50;99.90;;;;;;5034158;28;20579;-71
2021/09/17 08:53:44;;;;;;;34.60;27.23;;;18.50;99.90;;;;;;5030396;28;20421;-71
2021/09/17 08:56:17;;;;;;;30.85;26.45;;;18.50;99.90;;;;;;5029418;28;20430;-71
2021/09/17 08:58:44;;;;;;;35.90;26.80;;;18.50;99.90;;;;;;5027798;28;20179;-71
2021/09/17 09:01:24;;;;;;;32.63;25.67;;;18.60;99.90;;;;;;5033539;28;20507;-71
2021/09/17 09:03:50;;;;;;;31.90;25.17;;;18.70;99.90;;;;;;5033149;28;20426;-71
2021/09/17 09:06:16;;;;;;;28.83;24.03;;;18.80;99.90;;;;;;5028344;28;20950;-72
2021/09/17 09:08:43;;;;;;;29.47;24.23;;;18.80;99.90;;;;;;5034298;28;20421;-71
2021/09/17 09:11:23;;;;;;;32.27;25.40;;;18.90;99.90;;;;;;5034214;28;20195;-71
2021/09/17 09:14:08;;;;;;;28.83;23.90;;;19.00;99.90;;;;;;5032645;28;20448;-72
2021/09/17 09:16:38;;;;;;;30.43;24.33;;;19.10;99.90;;;;;;5032719;28;20437;-72
2021/09/17 09:19:22;;;;;;;28.30;23.97;;;19.20;99.90;;;;;;5001025;28;20946;-72
2021/09/17 09:21:51;;;;;;;27.67;22.10;;;19.20;99.90;;;;;;5033933;28;20430;-71
2021/09/17 09:24:22;;;;;;;26.50;22.37;;;19.30;99.90;;;;;;5034973;28;20417;-71
2021/09/17 09:27:11;;;;;;;26.50;22.70;;;19.30;99.90;;;;;;5027989;28;20425;-72
2021/09/17 09:29:38;;;;;;;27.03;21.60;;;19.30;99.90;;;;;;5038287;28;20501;-71
2021/09/17 09:32:04;;;;;;;30.53;22.77;;;19.40;99.90;;;;;;5034324;28;20451;-71
2021/09/17 09:34:54;;;;;;;25.60;21.43;;;19.30;99.90;;;;;;5034753;28;20437;-70
2021/09/17 09:37:22;;;;;;;24.47;21.80;;;19.40;99.90;;;;;;5031946;28;20460;-70
2021/09/17 09:39:49;;;;;;;26.67;22.50;;;19.50;99.90;;;;;;5033186;28;20418;-72
2021/09/17 09:42:27;;;;;;;25.07;21.63;;;19.60;99.90;;;;;;5032702;28;20484;-70
2021/09/17 09:45:28;;;;;;;26.17;20.47;;;19.70;99.90;;;;;;5033064;28;20413;-72
2021/09/17 09:47:55;;;;;;;24.57;19.97;;;19.80;99.90;;;;;;4939760;28;20500;-71
2021/09/17 09:50:29;;;;;;;23.77;21.13;;;19.90;99.90;;;;;;4912296;29;20483;-72
2021/09/17 09:53:00;;;;;;;25.10;21.37;;;20.10;99.90;;;;;;4924289;29;20509;-71
2021/09/17 09:55:26;;;;;;;27.93;21.33;;;20.20;99.90;;;;;;4952435;29;20544;-72
2021/09/17 09:57:55;;;;;;;27.70;22.00;;;20.30;99.90;;;;;;4934430;29;20553;-72
2021/09/17 10:00:21;;;;;;;25.60;19.90;;;20.40;99.90;;;;;;4931764;29;20518;-72
2021/09/17 10:02:46;;;;;;;29.43;22.40;;;20.40;99.90;;;;;;4935277;29;20831;-71
2021/09/17 10:05:15;;;;;;;19.80;17.70;;;20.50;99.90;;;;;;4953282;29;20188;-72
2021/09/17 10:07:43;;;;;;;21.17;17.20;;;20.40;99.90;;;;;;4946721;29;20202;-72
2021/09/17 10:10:10;;;;;;;18.87;16.60;;;20.50;99.90;;;;;;4922601;29;20440;-72
2021/09/17 10:12:37;;;;;;;14.40;12.20;;;20.60;99.90;;;;;;4951699;29;20560;-71
2021/09/17 10:15:04;;;;;;;12.53;10.53;;;20.60;99.90;;;;;;4952842;29;20972;-72
2021/09/17 10:17:32;;;;;;;14.40;10.93;;;20.70;99.90;;;;;;4946439;29;20473;-71
2021/09/17 10:19:59;;;;;;;12.90;10.10;;;20.50;99.90;;;;;;4942012;29;20440;-73
2021/09/17 10:22:45;;;;;;;12.97;10.57;;;20.60;99.90;;;;;;5010505;28;20413;-71
2021/09/17 10:25:20;;;;;;;9.83;8.80;;;20.60;99.90;;;;;;5032688;28;20429;-71
2021/09/17 10:28:00;;;;;;;12.47;8.37;;;20.60;99.90;;;;;;5032972;28;20420;-72
2021/09/17 10:30:29;;;;;;;9.10;8.20;;;20.60;99.90;;;;;;5031188;28;20461;-71
2021/09/17 10:32:56;;;;;;;12.30;9.60;;;20.70;99.90;;;;;;5032338;28;20409;-71
2021/09/17 10:35:25;;;;;;;12.67;10.50;;;20.60;99.90;;;;;;5031945;28;20755;-71
2021/09/17 10:37:58;;;;;;;11.67;9.43;;;20.70;99.90;;;;;;5031711;28;20449;-72
2021/09/17 10:40:44;;;;;;;8.00;7.20;;;20.60;99.90;;;;;;5015529;28;20451;-72
2021/09/17 10:43:09;;;;;;;10.10;8.33;;;20.50;99.90;;;;;;5017213;28;20792;-71
2021/09/17 10:45:42;;;;;;;11.03;9.10;;;20.50;99.90;;;;;;5031894;28;20417;-73
2021/09/17 10:48:08;;;;;;;9.80;8.73;;;20.60;99.90;;;;;;5032126;28;20182;-71
2021/09/17 10:50:48;;;;;;;9.73;8.73;;;20.70;99.90;;;;;;5032828;28;20983;-71
2021/09/17 10:53:34;;;;;;;11.17;8.53;;;20.80;99.90;;;;;;5030823;28;20441;-72
2021/09/17 10:56:03;;;;;;;8.87;7.20;;;20.80;99.90;;;;;;5027643;28;20814;-71
2021/09/17 10:58:35;;;;;;;9.47;8.57;;;20.80;99.90;;;;;;5031653;28;20453;-72
2021/09/17 11:01:10;;;;;;;8.93;8.03;;;20.80;99.40;;;;;;4997493;28;20540;-71
2021/09/17 11:03:37;;;;;;;6.80;6.20;;;20.90;99.70;;;;;;5021152;28;20474;-70
2021/09/17 11:09:06;;;;;;;12.70;11.37;;;21.20;99.90;;;;;;5028837;28;20910;-70
2021/09/17 11:11:42;;;;;;;14.10;11.33;;;21.00;99.90;;;;;;5030038;28;20433;-71
2021/09/17 11:14:14;;;;;;;11.37;9.97;;;21.00;99.90;;;;;;5029130;28;20902;-71
2021/09/17 11:16:41;;;;;;;11.23;10.10;;;21.00;99.90;;;;;;5031104;28;20469;-70
2021/09/17 11:19:13;;;;;;;10.93;9.40;;;21.20;99.90;;;;;;5047362;28;20524;-70
2021/09/17 11:21:43;;;;;;;9.80;8.80;;;21.30;99.90;;;;;;5032882;28;20437;-70
2021/09/17 11:24:25;;;;;;;11.27;9.97;;;21.30;99.90;;;;;;5035032;28;20528;-70
2021/09/17 11:26:52;;;;;;;10.90;9.80;;;21.30;99.90;;;;;;5022566;28;20441;-70
2021/09/17 11:29:20;;;;;;;10.88;9.95;;;21.40;99.90;;;;;;5053678;28;20421;-71
2021/09/17 11:31:54;;;;;;;11.80;9.87;;;21.60;99.90;;;;;;5045092;28;20211;-71
2021/09/17 11:34:23;;;;;;;11.07;9.97;;;21.70;99.90;;;;;;5046116;28;20441;-71
2021/09/17 11:36:53;;;;;;;11.40;10.20;;;21.70;99.70;;;;;;5029937;28;20496;-72
2021/09/17 11:39:38;;;;;;;12.20;10.70;;;21.50;99.90;;;;;;5026626;28;20434;-72
2021/09/17 11:42:09;;;;;;;11.70;10.50;;;21.40;99.90;;;;;;5035635;28;20464;-72
2021/09/17 11:44:40;;;;;;;12.27;10.97;;;21.40;99.70;;;;;;5025102;28;20947;-72
2021/09/17 11:47:19;;;;;;;12.80;11.23;;;21.40;99.90;;;;;;5015733;28;21147;-71
2021/09/17 11:49:46;;;;;;;12.63;11.33;;;21.30;99.90;;;;;;5008423;28;20460;-72
2021/09/17 11:52:18;;;;;;;13.77;12.37;;;21.20;99.90;;;;;;5022278;28;20477;-72
2021/09/17 11:54:57;;;;;;;15.50;12.50;;;20.90;99.90;;;;;;5027170;28;20806;-72
2021/09/17 11:57:41;;;;;;;13.33;12.13;;;20.80;99.90;;;;;;5031040;28;20568;-72
2021/09/17 12:00:09;;;;;;;11.37;10.13;;;20.90;99.90;;;;;;5031184;28;20571;-73
2021/09/17 12:02:46;;;;;;;10.73;9.73;;;20.90;99.90;;;;;;5030029;28;20458;-72
2021/09/17 12:05:18;;;;;;;12.40;11.20;;;21.00;99.90;;;;;;5001034;28;20420;-73
2021/09/17 12:07:44;;;;;;;13.23;11.97;;;21.10;99.90;;;;;;5027928;28;20542;-72
2021/09/17 12:10:16;;;;;;;16.10;14.47;;;21.20;99.90;;;;;;5018448;28;20438;-73
2021/09/17 12:12:47;;;;;;;16.57;14.87;;;21.30;99.90;;;;;;5006888;28;20422;-71
2021/09/17 12:15:25;;;;;;;21.83;19.67;;;21.30;99.90;;;;;;5024936;28;20440;-71
2021/09/17 12:18:00;;;;;;;19.90;18.00;;;21.00;99.90;;;;;;5023111;28;20475;-71
2021/09/17 12:20:44;;;;;;;23.93;21.03;;;20.90;99.90;;;;;;5044785;28;20987;-71
2021/09/17 12:23:15;;;;;;;23.13;19.37;;;20.90;99.90;;;;;;5031306;28;20752;-71
2021/09/17 12:25:41;;;;;;;21.67;16.50;;;20.90;99.90;;;;;;5031551;28;20451;-71
2021/09/17 12:28:09;;;;;;;20.87;18.33;;;21.00;99.90;;;;;;5018276;28;20438;-71
2021/09/17 12:30:37;;;;;;;18.70;16.80;;;21.00;99.90;;;;;;5030710;28;20544;-71
2021/09/17 12:33:12;;;;;;;22.47;20.10;;;21.10;99.90;;;;;;5032146;28;20417;-71
2021/09/17 12:35:42;;;;;;;21.60;19.57;;;21.00;99.90;;;;;;5032108;28;20408;-72
2021/09/17 12:38:09;;;;;;;21.37;18.97;;;21.00;99.90;;;;;;5023493;28;20458;-73
2021/09/17 12:40:41;;;;;;;22.10;20.00;;;21.10;99.90;;;;;;5031136;28;20433;-72